Mc Comb/Pike County/John E Lewis Field
KMCB : now visible

Airfield :











YOU CAN JOIN US ON...

 
LOGIN :

Register | Disclaimer

   EN    FR    IT 

 









Legend :    VFR   Marginal VFR   IFR   Intensive IFR   Very Intensive IFR
Visi :
Ceiling :
>= 8 km
>= 3000ft
5 to 8 km
1000 to 3000 ft
1500m to 5 km
500 to 1000 ft
800 to 1500m
200 to 500 ft
< 800m
< 200 ft
Symbols :   Thunderstorms  Fog  Heavy snow  Heavy precipitations  Wind > 20 kt






- Airport Elevation : 413 ft


KMCB - Mc Comb/Pike County/John E Lewis Field

CURRENT METAR :
  • 172153Z AUTO 14008KT 10SM BKN025 BKN035 OVC050 18/09 A3027 RMK AO2 SLP248 T01830094

EXPIRED METARs :
  • 172109Z AUTO 12005KT 10SM BKN025 BKN044 18/09 A3028 RMK AO2 T01830094
  • 172053Z AUTO VRB04KT 10SM SCT023 BKN044 18/09 A3028 RMK AO2 SLP250 T01830089 56008
  • 172049Z AUTO 17004KT 10SM SCT023 BKN043 OVC055 18/09 A3028 RMK AO2
  • 171953Z AUTO 15006KT 10SM BKN021 OVC050 17/07 A3029 RMK AO2 SLP254 T01670072

TAF KMCB
Valid from the 17 at 18:00 until the 18 at 18:00 UTC


171720Z 1718/1818 12005KT P6SM SCT080 OVC120
FM180600 14006KT P6SM VCSH SCT020 OVC035
FM181200 VRB04KT P6SM -SHRA SCT010 OVC015
FM181400 18005KT 3SM -SHRA BR SCT003 OVC010
FM181700 22005KT P6SM -SHRA OVC010



MET'MAP, your aeronautical weather chart ! - Copyright ORBIFLY December 2007 - Disclaimer

ORBIFLY MET'MAP TEAM :

Programming & Development : Alexandra Zaïnal
Concept & original design : Baudouin d'Aumeries
Assistance for programming : Marc-Olivier Méhu
Technical & hardware support : Manuel Goepfert

Contact : metmap@orbifly.com




SOURCES & CREDITS :

   NOAA       Earth
Advisory